createdAt,value
2023-01-12T00:25:57.193Z,23.80
2023-01-12T00:28:24.337Z,21.90
2023-01-12T00:30:51.504Z,24.70
2023-01-12T00:33:20.389Z,31.80
2023-01-12T00:35:47.834Z,20.90
2023-01-12T00:38:14.883Z,22.70
2023-01-12T00:40:41.938Z,26.90
2023-01-12T00:43:27.826Z,26.60
2023-01-12T00:45:55.053Z,26.50
2023-01-12T00:48:23.253Z,32.20
2023-01-12T00:50:50.405Z,37.60
2023-01-12T00:53:17.455Z,31.60
2023-01-12T00:55:46.350Z,28.00
2023-01-12T00:58:13.495Z,27.30
2023-01-12T01:00:40.647Z,24.40
2023-01-12T01:03:07.803Z,21.40
2023-01-12T01:05:34.955Z,27.90
2023-01-12T01:08:04.045Z,25.00
2023-01-12T01:10:31.198Z,20.60
2023-01-12T01:12:58.349Z,22.10
2023-01-12T01:15:25.403Z,26.00
2023-01-12T01:17:52.550Z,22.50
2023-01-12T01:20:19.706Z,21.70
2023-01-12T01:22:46.753Z,22.30
2023-01-12T01:25:13.905Z,28.60
2023-01-12T01:27:41.057Z,27.30
2023-01-12T01:30:09.234Z,23.40
2023-01-12T01:32:36.340Z,22.70
2023-01-12T01:35:03.457Z,25.20
2023-01-12T01:37:31.203Z,29.20
2023-01-12T01:39:58.350Z,27.80
2023-01-12T01:42:28.521Z,29.90
2023-01-12T01:44:57.575Z,30.70
2023-01-12T01:47:50.224Z,32.10
2023-01-12T01:50:24.641Z,23.70
2023-01-12T01:53:06.234Z,24.00
2023-01-12T01:55:36.761Z,24.10
2023-01-12T01:58:09.445Z,24.70
2023-01-12T02:00:37.925Z,22.10
2023-01-12T02:03:05.315Z,23.20
2023-01-12T02:05:32.534Z,23.50
2023-01-12T06:48:12.242Z,18.20
2023-01-12T06:50:39.395Z,23.50
2023-01-12T06:53:07.359Z,20.60
2023-01-12T06:55:35.025Z,22.60
2023-01-12T06:58:03.994Z,25.60
2023-01-12T07:00:31.687Z,23.10
2023-01-12T07:02:59.043Z,22.10
2023-01-12T07:05:26.192Z,25.80
2023-01-12T07:07:58.962Z,23.40
2023-01-12T07:10:26.685Z,22.80
2023-01-12T07:12:54.102Z,22.50
2023-01-12T07:15:21.244Z,22.80
2023-01-12T07:17:48.406Z,23.80
2023-01-12T07:20:16.153Z,23.30
2023-01-12T07:22:43.519Z,21.90
2023-01-12T07:25:10.666Z,24.30
2023-01-12T07:27:37.816Z,26.10
2023-01-12T07:30:05.579Z,26.90
2023-01-12T07:32:32.937Z,28.30
2023-01-12T07:35:00.089Z,26.60
2023-01-12T07:37:27.243Z,20.80
2023-01-12T07:39:54.393Z,24.90
2023-01-12T07:42:24.329Z,22.00
2023-01-12T07:44:52.385Z,24.40
2023-01-12T07:47:19.563Z,29.40
2023-01-12T07:49:46.996Z,27.60
2023-01-12T07:52:14.650Z,25.40
2023-01-12T07:54:41.804Z,20.90
2023-01-12T07:57:12.644Z,25.80
2023-01-12T07:59:39.804Z,26.20
2023-01-12T08:02:07.294Z,26.80
2023-01-12T08:04:34.505Z,32.70
2023-01-12T08:07:01.759Z,28.80
2023-01-12T08:09:28.908Z,25.00
2023-01-12T08:11:56.060Z,24.10
2023-01-12T08:14:33.647Z,24.00
2023-01-12T08:17:02.151Z,26.00
2023-01-12T08:19:39.436Z,24.40
2023-01-12T08:22:10.370Z,20.70
2023-01-12T08:24:46.326Z,21.60
2023-01-12T08:27:13.476Z,23.70
2023-01-12T08:29:45.706Z,29.50
2023-01-12T08:32:13.558Z,20.70
2023-01-12T08:34:41.742Z,21.80
2023-01-12T08:37:10.074Z,22.20
2023-01-12T08:39:37.338Z,21.10
2023-01-12T08:42:04.681Z,22.80
2023-01-12T08:44:34.704Z,23.70
2023-01-12T08:47:02.159Z,20.40
2023-01-12T08:49:29.945Z,26.10
2023-01-12T08:51:57.283Z,20.30
2023-01-12T08:54:24.871Z,22.90
2023-01-12T08:56:54.376Z,24.40
2023-01-12T08:59:21.623Z,24.60
2023-01-12T09:01:49.169Z,24.60
2023-01-12T09:04:16.427Z,24.40
2023-01-12T09:06:44.793Z,19.40
2023-01-12T09:09:13.791Z,24.10
2023-01-12T09:11:41.901Z,18.50
2023-01-12T09:14:09.551Z,20.50
2023-01-12T09:16:36.847Z,20.60
2023-01-12T09:19:04.155Z,19.50
2023-01-12T09:21:31.823Z,20.30
2023-01-12T09:23:59.073Z,21.90
2023-01-12T09:26:31.831Z,20.30
2023-01-12T09:28:59.922Z,19.50
2023-01-12T09:31:27.657Z,18.80
2023-01-12T09:33:54.956Z,19.50
2023-01-12T09:36:24.363Z,24.70
2023-01-12T09:38:51.506Z,22.20
2023-01-12T09:42:05.465Z,22.60
2023-01-12T09:44:52.795Z,22.30
2023-01-12T09:47:44.933Z,27.50
2023-01-12T09:50:18.125Z,23.00
2023-01-12T09:52:57.463Z,24.70
2023-01-12T09:55:26.774Z,24.10
2023-01-12T09:58:19.007Z,24.80
2023-01-12T10:00:51.523Z,28.70
2023-01-12T10:03:31.989Z,30.20
2023-01-12T16:14:22.992Z,31.60
2023-01-12T16:16:50.257Z,42.80
2023-01-12T16:19:21.505Z,31.80
2023-01-12T16:21:48.638Z,35.50
2023-01-12T16:24:15.798Z,37.60
2023-01-12T16:26:43.968Z,37.00
2023-01-12T16:29:11.226Z,37.30
2023-01-12T16:31:39.420Z,33.60
2023-01-12T16:34:06.858Z,33.30
2023-01-12T16:36:35.025Z,35.40
2023-01-12T16:39:02.176Z,37.10
2023-01-12T16:41:29.431Z,32.00
2023-01-12T16:43:58.426Z,39.50
2023-01-12T16:46:25.572Z,38.00
2023-01-12T16:48:55.488Z,37.10
2023-01-12T16:53:51.842Z,32.00
2023-01-12T16:56:18.991Z,32.10
2023-01-12T16:58:48.905Z,32.60
2023-01-12T17:01:18.325Z,34.80
2023-01-12T17:06:16.922Z,31.30
2023-01-12T17:08:44.174Z,26.70
2023-01-12T17:11:12.921Z,29.20
2023-01-12T17:13:40.218Z,39.00
2023-01-12T17:16:10.766Z,32.50
2023-01-12T17:18:38.924Z,37.90
2023-01-12T17:21:12.255Z,29.70
2023-01-12T17:23:40.581Z,28.70
2023-01-12T17:26:09.602Z,31.20
2023-01-12T17:28:36.861Z,29.50
2023-01-12T17:31:12.579Z,35.30
2023-01-12T17:33:39.853Z,34.90
2023-01-12T17:36:08.638Z,41.00
2023-01-12T17:38:36.518Z,30.30
2023-01-12T17:41:08.586Z,31.00
2023-01-12T17:43:37.464Z,33.10
2023-01-12T17:46:07.922Z,32.60
2023-01-12T17:48:35.064Z,31.50
2023-01-12T17:51:06.392Z,37.70
2023-01-12T17:53:33.543Z,34.70
2023-01-12T17:56:04.014Z,28.70
2023-01-12T17:58:31.123Z,26.40
2023-01-12T23:02:26.288Z,22.40
2023-01-12T23:04:53.540Z,19.30
2023-01-12T23:07:20.793Z,19.10
2023-01-12T23:09:47.944Z,23.90
2023-01-12T23:12:15.093Z,28.00
2023-01-12T23:14:42.249Z,23.70
2023-01-12T23:17:09.396Z,21.70
2023-01-12T23:19:36.566Z,23.90
2023-01-12T23:22:03.903Z,31.10
2023-01-12T23:24:31.052Z,25.20
2023-01-12T23:26:58.308Z,25.70
2023-01-12T23:29:25.457Z,22.10
2023-01-12T23:31:52.616Z,34.30
2023-01-12T23:34:19.867Z,21.30
2023-01-12T23:36:47.013Z,30.60
2023-01-12T23:39:14.170Z,21.90
2023-01-12T23:41:41.322Z,28.00
2023-01-12T23:44:09.796Z,27.90
2023-01-12T23:46:38.251Z,25.80
2023-01-12T23:49:05.644Z,27.20
2023-01-12T23:51:33.002Z,24.60
2023-01-12T23:54:00.842Z,22.70
2023-01-12T23:56:29.304Z,23.30
2023-01-12T23:58:56.600Z,30.30
